sensor_id;sensor_type;location;lat;lon;timestamp;pressure;altitude;pressure_sealevel;temperature;humidity
48424;BME280;34232;42.502;26.014;2023-04-01T00:00:57;99343.22;;;10.98;67.74
48424;BME280;34232;42.502;26.014;2023-04-01T00:03:23;99341.41;;;10.99;67.19
48424;BME280;34232;42.502;26.014;2023-04-01T00:05:49;99345.84;;;10.98;66.96
48424;BME280;34232;42.502;26.014;2023-04-01T00:08:15;99342.00;;;10.93;66.50
48424;BME280;34232;42.502;26.014;2023-04-01T00:10:40;99340.69;;;10.79;66.79
48424;BME280;34232;42.502;26.014;2023-04-01T00:13:05;99344.47;;;10.67;67.09
48424;BME280;34232;42.502;26.014;2023-04-01T00:15:31;99339.91;;;10.69;67.56
48424;BME280;34232;42.502;26.014;2023-04-01T00:17:56;99334.63;;;10.69;67.59
48424;BME280;34232;42.502;26.014;2023-04-01T00:20:22;99329.38;;;10.69;66.79
48424;BME280;34232;42.502;26.014;2023-04-01T00:22:47;99327.31;;;10.63;66.86
48424;BME280;34232;42.502;26.014;2023-04-01T00:25:12;99324.56;;;10.55;66.75
48424;BME280;34232;42.502;26.014;2023-04-01T00:27:38;99327.50;;;10.51;66.92
48424;BME280;34232;42.502;26.014;2023-04-01T00:30:03;99316.56;;;10.46;67.49
48424;BME280;34232;42.502;26.014;2023-04-01T00:32:29;99307.16;;;10.44;67.25
48424;BME280;34232;42.502;26.014;2023-04-01T00:34:55;99296.06;;;10.40;67.09
48424;BME280;34232;42.502;26.014;2023-04-01T00:37:21;99290.72;;;10.32;68.10
48424;BME280;34232;42.502;26.014;2023-04-01T00:39:46;99289.63;;;10.25;68.44
48424;BME280;34232;42.502;26.014;2023-04-01T00:42:11;99288.28;;;10.21;68.45
48424;BME280;34232;42.502;26.014;2023-04-01T00:44:37;99288.84;;;10.05;69.87
48424;BME280;34232;42.502;26.014;2023-04-01T00:47:03;99285.50;;;10.03;71.95
48424;BME280;34232;42.502;26.014;2023-04-01T00:49:29;99289.94;;;10.03;72.48
48424;BME280;34232;42.502;26.014;2023-04-01T00:51:56;99288.84;;;10.05;72.71
48424;BME280;34232;42.502;26.014;2023-04-01T00:54:22;99292.41;;;10.14;72.89
48424;BME280;34232;42.502;26.014;2023-04-01T00:59:27;99292.94;;;10.27;71.99
48424;BME280;34232;42.502;26.014;2023-04-01T01:01:53;99292.66;;;10.30;71.63
48424;BME280;34232;42.502;26.014;2023-04-01T01:04:22;99295.97;;;10.32;71.18
48424;BME280;34232;42.502;26.014;2023-04-01T01:06:59;99291.41;;;10.34;71.15
48424;BME280;34232;42.502;26.014;2023-04-01T01:12:20;99292.66;;;10.30;70.80
48424;BME280;34232;42.502;26.014;2023-04-01T01:17:19;99278.81;;;10.28;68.45
48424;BME280;34232;42.502;26.014;2023-04-01T01:27:41;99260.31;;;10.01;65.22
48424;BME280;34232;42.502;26.014;2023-04-01T01:37:46;99259.81;;;9.59;67.15
48424;BME280;34232;42.502;26.014;2023-04-01T01:40:12;99251.28;;;9.57;68.55
48424;BME280;34232;42.502;26.014;2023-04-01T01:42:39;99251.81;;;9.51;70.15
48424;BME280;34232;42.502;26.014;2023-04-01T01:45:06;99247.41;;;9.51;70.80
48424;BME280;34232;42.502;26.014;2023-04-01T01:47:33;99252.94;;;9.48;70.58
48424;BME280;34232;42.502;26.014;2023-04-01T01:49:59;99248.63;;;9.47;69.82
48424;BME280;34232;42.502;26.014;2023-04-01T01:52:27;99253.75;;;9.48;69.69
48424;BME280;34232;42.502;26.014;2023-04-01T01:54:53;99260.09;;;9.46;70.01
48424;BME280;34232;42.502;26.014;2023-04-01T01:57:20;99258.72;;;9.42;68.50
48424;BME280;34232;42.502;26.014;2023-04-01T01:59:48;99258.72;;;9.32;68.73
48424;BME280;34232;42.502;26.014;2023-04-01T02:02:14;99260.38;;;9.14;70.39
48424;BME280;34232;42.502;26.014;2023-04-01T02:04:41;99265.94;;;9.21;70.55
48424;BME280;34232;42.502;26.014;2023-04-01T02:07:08;99260.09;;;9.27;70.57
48424;BME280;34232;42.502;26.014;2023-04-01T02:09:36;99261.22;;;9.24;70.49
48424;BME280;34232;42.502;26.014;2023-04-01T02:12:05;99258.44;;;9.26;69.51
48424;BME280;34232;42.502;26.014;2023-04-01T02:14:42;99255.41;;;9.21;69.39
48424;BME280;34232;42.502;26.014;2023-04-01T02:17:18;99263.13;;;9.12;70.34
48424;BME280;34232;42.502;26.014;2023-04-01T02:22:23;99261.47;;;9.11;70.93
48424;BME280;34232;42.502;26.014;2023-04-01T02:24:50;99260.13;;;9.07;70.26
48424;BME280;34232;42.502;26.014;2023-04-01T02:27:17;99250.00;;;9.03;70.56
48424;BME280;34232;42.502;26.014;2023-04-01T02:29:42;99246.81;;;8.90;71.13
48424;BME280;34232;42.502;26.014;2023-04-01T02:32:08;99239.91;;;8.89;71.15
48424;BME280;34232;42.502;26.014;2023-04-01T02:34:34;99235.63;;;8.88;71.40
48424;BME280;34232;42.502;26.014;2023-04-01T02:36:59;99232.31;;;8.86;72.22
48424;BME280;34232;42.502;26.014;2023-04-01T02:39:25;99221.09;;;8.84;72.64
48424;BME280;34232;42.502;26.014;2023-04-01T02:41:51;99217.22;;;8.78;73.10
48424;BME280;34232;42.502;26.014;2023-04-01T02:44:16;99219.56;;;8.81;74.18
48424;BME280;34232;42.502;26.014;2023-04-01T02:46:42;99214.19;;;8.73;74.40
48424;BME280;34232;42.502;26.014;2023-04-01T02:49:07;99210.03;;;8.80;75.14
48424;BME280;34232;42.502;26.014;2023-04-01T02:51:33;99211.97;;;8.59;76.87
48424;BME280;34232;42.502;26.014;2023-04-01T02:53:58;99207.97;;;8.74;76.53
48424;BME280;34232;42.502;26.014;2023-04-01T02:56:24;99200.94;;;8.84;77.05
48424;BME280;34232;42.502;26.014;2023-04-01T02:58:51;99204.69;;;8.91;77.29
48424;BME280;34232;42.502;26.014;2023-04-01T03:01:16;99211.44;;;8.94;77.63
48424;BME280;34232;42.502;26.014;2023-04-01T03:03:41;99211.19;;;9.06;77.15
48424;BME280;34232;42.502;26.014;2023-04-01T03:06:07;99208.69;;;9.15;77.55
48424;BME280;34232;42.502;26.014;2023-04-01T03:08:33;99208.97;;;9.21;76.88
48424;BME280;34232;42.502;26.014;2023-04-01T03:10:58;99211.16;;;9.26;76.62
48424;BME280;34232;42.502;26.014;2023-04-01T03:13:24;99211.03;;;9.27;76.28
48424;BME280;34232;42.502;26.014;2023-04-01T03:15:49;99216.84;;;9.31;75.24
48424;BME280;34232;42.502;26.014;2023-04-01T03:18:14;99223.63;;;9.24;75.22
48424;BME280;34232;42.502;26.014;2023-04-01T03:20:40;99214.50;;;9.28;73.64
48424;BME280;34232;42.502;26.014;2023-04-01T03:23:05;99216.16;;;9.29;73.09
48424;BME280;34232;42.502;26.014;2023-04-01T03:25:30;99224.72;;;9.31;72.75
48424;BME280;34232;42.502;26.014;2023-04-01T03:27:56;99220.31;;;9.31;72.84
48424;BME280;34232;42.502;26.014;2023-04-01T03:30:21;99215.47;;;9.27;72.25
48424;BME280;34232;42.502;26.014;2023-04-01T03:32:46;99205.91;;;9.26;71.76
48424;BME280;34232;42.502;26.014;2023-04-01T03:35:12;99218.38;;;9.14;73.70
48424;BME280;34232;42.502;26.014;2023-04-01T03:37:37;99221.41;;;9.19;74.67
48424;BME280;34232;42.502;26.014;2023-04-01T03:40:02;99202.63;;;9.24;74.99
48424;BME280;34232;42.502;26.014;2023-04-01T03:42:29;99198.34;;;9.23;74.32
48424;BME280;34232;42.502;26.014;2023-04-01T03:44:55;99213.53;;;9.29;73.97
48424;BME280;34232;42.502;26.014;2023-04-01T03:47:21;99205.38;;;9.32;74.49
48424;BME280;34232;42.502;26.014;2023-04-01T03:49:46;99212.28;;;9.33;74.53
48424;BME280;34232;42.502;26.014;2023-04-01T03:52:11;99217.53;;;9.33;74.66
48424;BME280;34232;42.502;26.014;2023-04-01T03:54:36;99211.06;;;9.37;74.23
48424;BME280;34232;42.502;26.014;2023-04-01T03:57:02;99208.69;;;9.34;74.57
48424;BME280;34232;42.502;26.014;2023-04-01T03:59:27;99210.66;;;9.41;73.93
48424;BME280;34232;42.502;26.014;2023-04-01T04:01:55;99205.09;;;9.44;73.91
48424;BME280;34232;42.502;26.014;2023-04-01T04:04:21;99203.97;;;9.47;74.14
48424;BME280;34232;42.502;26.014;2023-04-01T04:06:46;99198.16;;;9.53;75.24
48424;BME280;34232;42.502;26.014;2023-04-01T04:09:11;99190.69;;;9.58;75.43
48424;BME280;34232;42.502;26.014;2023-04-01T04:11:37;99188.22;;;9.57;76.46
48424;BME280;34232;42.502;26.014;2023-04-01T04:14:02;99193.16;;;9.60;76.19
48424;BME280;34232;42.502;26.014;2023-04-01T04:16:27;99194.00;;;9.60;76.70
48424;BME280;34232;42.502;26.014;2023-04-01T04:18:53;99181.97;;;9.67;77.40
48424;BME280;34232;42.502;26.014;2023-04-01T04:21:18;99184.03;;;9.73;77.48
48424;BME280;34232;42.502;26.014;2023-04-01T04:23:43;99185.09;;;9.80;76.92
48424;BME280;34232;42.502;26.014;2023-04-01T04:26:12;99193.41;;;9.86;77.49
48424;BME280;34232;42.502;26.014;2023-04-01T04:28:38;99177.03;;;9.92;77.42
48424;BME280;34232;42.502;26.014;2023-04-01T04:31:04;99165.69;;;9.91;78.48
48424;BME280;34232;42.502;26.014;2023-04-01T04:33:30;99151.63;;;9.82;80.89
48424;BME280;34232;42.502;26.014;2023-04-01T04:35:56;99144.13;;;9.88;80.76
48424;BME280;34232;42.502;26.014;2023-04-01T04:38:22;99146.88;;;9.96;80.89
48424;BME280;34232;42.502;26.014;2023-04-01T04:40:47;99141.88;;;10.02;81.07
48424;BME280;34232;42.502;26.014;2023-04-01T04:43:13;99152.63;;;10.09;80.98
48424;BME280;34232;42.502;26.014;2023-04-01T04:45:38;99147.34;;;10.09;81.03
48424;BME280;34232;42.502;26.014;2023-04-01T04:48:04;99157.44;;;10.13;81.67
48424;BME280;34232;42.502;26.014;2023-04-01T04:50:30;99147.72;;;10.24;81.79
48424;BME280;34232;42.502;26.014;2023-04-01T04:52:55;99145.34;;;10.30;81.55
48424;BME280;34232;42.502;26.014;2023-04-01T04:55:20;99145.88;;;10.34;81.42
48424;BME280;34232;42.502;26.014;2023-04-01T04:57:45;99141.69;;;10.41;81.36
48424;BME280;34232;42.502;26.014;2023-04-01T05:00:11;99152.16;;;10.50;80.90
48424;BME280;34232;42.502;26.014;2023-04-01T05:02:37;99151.53;;;10.57;80.28
48424;BME280;34232;42.502;26.014;2023-04-01T05:05:02;99140.50;;;10.53;81.17
48424;BME280;34232;42.502;26.014;2023-04-01T05:07:27;99147.44;;;10.54;80.98
48424;BME280;34232;42.502;26.014;2023-04-01T05:09:52;99145.53;;;10.46;81.11
48424;BME280;34232;42.502;26.014;2023-04-01T05:12:18;99146.59;;;10.54;80.99
48424;BME280;34232;42.502;26.014;2023-04-01T05:14:43;99154.09;;;10.48;80.79
48424;BME280;34232;42.502;26.014;2023-04-01T05:17:09;99163.06;;;10.56;80.67
48424;BME280;34232;42.502;26.014;2023-04-01T05:19:35;99157.88;;;10.64;80.06
48424;BME280;34232;42.502;26.014;2023-04-01T05:22:00;99152.09;;;10.60;80.20
48424;BME280;34232;42.502;26.014;2023-04-01T05:24:26;99150.25;;;10.43;80.66
48424;BME280;34232;42.502;26.014;2023-04-01T05:26:51;99156.59;;;10.50;80.85
48424;BME280;34232;42.502;26.014;2023-04-01T05:29:16;99163.06;;;10.56;80.99
48424;BME280;34232;42.502;26.014;2023-04-01T05:31:41;99157.59;;;10.67;80.85
48424;BME280;34232;42.502;26.014;2023-04-01T05:34:07;99155.03;;;10.75;80.32
48424;BME280;34232;42.502;26.014;2023-04-01T05:36:32;99150.59;;;10.75;80.53
48424;BME280;34232;42.502;26.014;2023-04-01T05:38:57;99152.63;;;10.81;80.79
48424;BME280;34232;42.502;26.014;2023-04-01T05:41:22;99148.06;;;10.83;80.45
48424;BME280;34232;42.502;26.014;2023-04-01T05:43:48;99139.38;;;10.91;80.36
48424;BME280;34232;42.502;26.014;2023-04-01T05:46:13;99143.75;;;11.00;80.52
48424;BME280;34232;42.502;26.014;2023-04-01T05:48:38;99137.19;;;11.04;80.33
48424;BME280;34232;42.502;26.014;2023-04-01T05:51:04;99124.09;;;11.12;80.86
48424;BME280;34232;42.502;26.014;2023-04-01T05:53:29;99121.16;;;11.15;80.70
48424;BME280;34232;42.502;26.014;2023-04-01T05:55:54;99134.03;;;11.18;80.54
48424;BME280;34232;42.502;26.014;2023-04-01T05:58:22;99128.53;;;11.30;80.33
48424;BME280;34232;42.502;26.014;2023-04-01T06:00:47;99127.72;;;11.37;80.48
48424;BME280;34232;42.502;26.014;2023-04-01T06:03:12;99127.00;;;11.53;79.98
48424;BME280;34232;42.502;26.014;2023-04-01T06:05:39;99134.63;;;11.56;80.34
48424;BME280;34232;42.502;26.014;2023-04-01T06:08:06;99127.78;;;11.71;79.93
48424;BME280;34232;42.502;26.014;2023-04-01T06:10:41;99131.88;;;11.83;79.79
48424;BME280;34232;42.502;26.014;2023-04-01T06:13:19;99128.31;;;12.01;79.84
48424;BME280;34232;42.502;26.014;2023-04-01T06:15:51;99124.25;;;12.14;79.02
48424;BME280;34232;42.502;26.014;2023-04-01T06:23:30;99126.63;;;12.42;78.05
48424;BME280;34232;42.502;26.014;2023-04-01T06:31:19;99129.00;;;12.61;77.75
48424;BME280;34232;42.502;26.014;2023-04-01T06:33:50;99120.59;;;12.66;77.46
48424;BME280;34232;42.502;26.014;2023-04-01T06:54:34;99134.50;;;13.32;72.77
48424;BME280;34232;42.502;26.014;2023-04-01T06:57:08;99130.06;;;13.41;73.00
48424;BME280;34232;42.502;26.014;2023-04-01T06:59:37;99127.88;;;13.53;72.67
48424;BME280;34232;42.502;26.014;2023-04-01T07:02:13;99119.94;;;13.61;72.37
48424;BME280;34232;42.502;26.014;2023-04-01T07:04:43;99120.28;;;13.58;71.94
48424;BME280;34232;42.502;26.014;2023-04-01T07:07:30;99115.00;;;13.58;73.02
48424;BME280;34232;42.502;26.014;2023-04-01T07:09:57;99123.06;;;13.64;72.50
48424;BME280;34232;42.502;26.014;2023-04-01T07:14:56;99107.22;;;13.56;73.07
48424;BME280;34232;42.502;26.014;2023-04-01T07:17:25;99099.13;;;13.50;73.07
48424;BME280;34232;42.502;26.014;2023-04-01T07:19:57;99089.88;;;13.54;73.74
48424;BME280;34232;42.502;26.014;2023-04-01T07:24:52;99080.31;;;13.37;73.95
48424;BME280;34232;42.502;26.014;2023-04-01T07:27:18;99074.22;;;13.36;73.92
48424;BME280;34232;42.502;26.014;2023-04-01T07:29:44;99070.69;;;13.52;74.11
48424;BME280;34232;42.502;26.014;2023-04-01T07:32:24;99068.22;;;13.58;73.87
48424;BME280;34232;42.502;26.014;2023-04-01T07:47:43;99081.34;;;13.83;71.09
48424;BME280;34232;42.502;26.014;2023-04-01T07:55:09;99061.91;;;14.07;70.87
48424;BME280;34232;42.502;26.014;2023-04-01T07:57:50;99065.22;;;14.09;70.05
48424;BME280;34232;42.502;26.014;2023-04-01T08:13:06;99017.06;;;15.19;65.19
48424;BME280;34232;42.502;26.014;2023-04-01T08:18:13;99008.03;;;15.72;62.34
48424;BME280;34232;42.502;26.014;2023-04-01T08:20:59;99007.03;;;16.09;61.17
48424;BME280;34232;42.502;26.014;2023-04-01T08:23:27;98992.97;;;16.52;60.21
48424;BME280;34232;42.502;26.014;2023-04-01T08:25:54;99006.41;;;16.93;58.94
48424;BME280;34232;42.502;26.014;2023-04-01T08:28:33;99007.84;;;17.17;57.46
48424;BME280;34232;42.502;26.014;2023-04-01T08:31:16;99013.28;;;17.36;56.96
48424;BME280;34232;42.502;26.014;2023-04-01T08:33:42;99004.81;;;17.61;56.57
48424;BME280;34232;42.502;26.014;2023-04-01T08:38:48;98997.25;;;18.05;54.77
48424;BME280;34232;42.502;26.014;2023-04-01T08:46:44;98973.38;;;18.58;53.82
48424;BME280;34232;42.502;26.014;2023-04-01T09:02:11;98962.84;;;19.42;51.51
48424;BME280;34232;42.502;26.014;2023-04-01T09:18:00;98943.13;;;19.37;51.51
48424;BME280;34232;42.502;26.014;2023-04-01T09:30:32;98918.47;;;19.54;51.44
48424;BME280;34232;42.502;26.014;2023-04-01T09:35:47;98894.94;;;19.76;51.17
48424;BME280;34232;42.502;26.014;2023-04-01T09:40:45;98881.81;;;19.75;50.78
48424;BME280;34232;42.502;26.014;2023-04-01T09:43:19;98877.72;;;19.66;51.60
48424;BME280;34232;42.502;26.014;2023-04-01T09:45:57;98878.09;;;19.76;51.24
48424;BME280;34232;42.502;26.014;2023-04-01T09:53:28;98861.25;;;20.38;50.10
48424;BME280;34232;42.502;26.014;2023-04-01T10:16:58;98805.31;;;20.37;50.53
48424;BME280;34232;42.502;26.014;2023-04-01T10:19:35;98787.91;;;20.27;51.49
48424;BME280;34232;42.502;26.014;2023-04-01T10:50:49;98737.00;;;20.41;51.74
48424;BME280;34232;42.502;26.014;2023-04-01T10:58:48;98734.47;;;20.46;53.73
48424;BME280;34232;42.502;26.014;2023-04-01T11:01:24;98726.22;;;20.47;52.84
48424;BME280;34232;42.502;26.014;2023-04-01T12:07:53;98612.81;;;20.55;47.26
48424;BME280;34232;42.502;26.014;2023-04-01T12:10:26;98609.56;;;20.35;46.67
48424;BME280;34232;42.502;26.014;2023-04-01T12:18:30;98594.28;;;20.05;47.91
48424;BME280;34232;42.502;26.014;2023-04-01T12:21:01;98588.50;;;20.08;48.25
48424;BME280;34232;42.502;26.014;2023-04-01T12:31:58;98583.03;;;20.81;47.21
48424;BME280;34232;42.502;26.014;2023-04-01T12:34:34;98577.16;;;21.03;46.48
48424;BME280;34232;42.502;26.014;2023-04-01T12:37:26;98581.88;;;20.77;45.44
48424;BME280;34232;42.502;26.014;2023-04-01T12:55:40;98552.41;;;21.19;45.18
48424;BME280;34232;42.502;26.014;2023-04-01T13:03:31;98541.34;;;21.27;44.96
48424;BME280;34232;42.502;26.014;2023-04-01T13:16:07;98502.59;;;21.18;44.80
48424;BME280;34232;42.502;26.014;2023-04-01T13:23:45;98490.03;;;21.07;44.38
48424;BME280;34232;42.502;26.014;2023-04-01T13:26:20;98480.00;;;21.14;44.79
48424;BME280;34232;42.502;26.014;2023-04-01T13:28:53;98490.72;;;20.90;44.69
48424;BME280;34232;42.502;26.014;2023-04-01T13:31:29;98476.16;;;20.86;45.02
48424;BME280;34232;42.502;26.014;2023-04-01T13:34:14;98485.69;;;20.82;45.35
48424;BME280;34232;42.502;26.014;2023-04-01T13:41:40;98459.84;;;20.65;45.58
48424;BME280;34232;42.502;26.014;2023-04-01T14:04:53;98433.59;;;20.32;46.35
48424;BME280;34232;42.502;26.014;2023-04-01T14:10:25;98439.25;;;20.42;46.11
48424;BME280;34232;42.502;26.014;2023-04-01T14:18:30;98413.91;;;20.56;45.77
48424;BME280;34232;42.502;26.014;2023-04-01T14:31:23;98366.25;;;20.53;45.50
48424;BME280;34232;42.502;26.014;2023-04-01T14:36:29;98368.63;;;20.31;46.07
48424;BME280;34232;42.502;26.014;2023-04-01T14:53:43;98409.97;;;19.87;46.87
48424;BME280;34232;42.502;26.014;2023-04-01T14:56:10;98423.06;;;19.77;46.90
48424;BME280;34232;42.502;26.014;2023-04-01T15:03:32;98396.88;;;19.49;47.38
48424;BME280;34232;42.502;26.014;2023-04-01T15:08:48;98396.53;;;19.45;47.76
48424;BME280;34232;42.502;26.014;2023-04-01T15:26:43;98401.50;;;19.05;52.13
48424;BME280;34232;42.502;26.014;2023-04-01T15:36:51;98460.13;;;19.12;65.65
48424;BME280;34232;42.502;26.014;2023-04-01T15:39:19;98453.59;;;18.58;68.82
48424;BME280;34232;42.502;26.014;2023-04-01T15:42:04;98430.97;;;18.11;70.63
48424;BME280;34232;42.502;26.014;2023-04-01T15:44:37;98451.25;;;17.61;70.09
48424;BME280;34232;42.502;26.014;2023-04-01T16:16:07;98494.66;;;16.16;71.65
48424;BME280;34232;42.502;26.014;2023-04-01T16:18:39;98511.00;;;16.20;70.19
48424;BME280;34232;42.502;26.014;2023-04-01T16:21:08;98500.81;;;16.30;68.99
48424;BME280;34232;42.502;26.014;2023-04-01T16:26:15;98517.38;;;16.32;68.59
48424;BME280;34232;42.502;26.014;2023-04-01T16:29:07;98518.97;;;16.20;66.91
48424;BME280;34232;42.502;26.014;2023-04-01T16:31:35;98520.03;;;16.32;67.19
48424;BME280;34232;42.502;26.014;2023-04-01T16:34:10;98520.22;;;16.30;65.57
48424;BME280;34232;42.502;26.014;2023-04-01T16:36:58;98515.66;;;16.11;64.35
48424;BME280;34232;42.502;26.014;2023-04-01T16:44:32;98549.69;;;15.94;67.59
48424;BME280;34232;42.502;26.014;2023-04-01T16:47:10;98552.84;;;15.70;68.66
48424;BME280;34232;42.502;26.014;2023-04-01T16:49:40;98556.81;;;15.53;70.86
48424;BME280;34232;42.502;26.014;2023-04-01T16:59:47;98567.41;;;15.81;69.73
48424;BME280;34232;42.502;26.014;2023-04-01T17:07:11;98593.50;;;15.77;69.72
48424;BME280;34232;42.502;26.014;2023-04-01T17:17:49;98634.63;;;15.88;68.57
48424;BME280;34232;42.502;26.014;2023-04-01T17:20:25;98638.59;;;15.70;69.04
48424;BME280;34232;42.502;26.014;2023-04-01T17:22:54;98663.28;;;15.50;70.00
48424;BME280;34232;42.502;26.014;2023-04-01T17:30:37;98675.53;;;15.72;69.25
48424;BME280;34232;42.502;26.014;2023-04-01T17:33:13;98691.53;;;15.36;71.07
48424;BME280;34232;42.502;26.014;2023-04-01T17:40:50;98702.69;;;15.31;70.47
48424;BME280;34232;42.502;26.014;2023-04-01T17:43:42;98697.75;;;15.50;69.51
48424;BME280;34232;42.502;26.014;2023-04-01T17:56:37;98708.19;;;14.73;72.91
48424;BME280;34232;42.502;26.014;2023-04-01T18:11:44;98695.19;;;14.42;79.55
48424;BME280;34232;42.502;26.014;2023-04-01T18:14:27;98708.78;;;14.53;79.90
48424;BME280;34232;42.502;26.014;2023-04-01T18:24:46;98724.13;;;14.43;82.64
48424;BME280;34232;42.502;26.014;2023-04-01T18:27:16;98729.50;;;14.50;82.64
48424;BME280;34232;42.502;26.014;2023-04-01T18:32:22;98728.31;;;14.52;83.07
48424;BME280;34232;42.502;26.014;2023-04-01T18:35:08;98723.75;;;14.46;83.48
48424;BME280;34232;42.502;26.014;2023-04-01T18:37:42;98734.09;;;14.41;84.04
48424;BME280;34232;42.502;26.014;2023-04-01T18:40:17;98728.31;;;14.52;83.96
48424;BME280;34232;42.502;26.014;2023-04-01T18:45:59;98716.59;;;14.61;83.46
48424;BME280;34232;42.502;26.014;2023-04-01T18:48:46;98708.25;;;14.79;82.53
48424;BME280;34232;42.502;26.014;2023-04-01T18:53:45;98720.31;;;15.18;80.63
48424;BME280;34232;42.502;26.014;2023-04-01T18:56:22;98732.06;;;15.30;79.96
48424;BME280;34232;42.502;26.014;2023-04-01T19:01:47;98739.63;;;15.54;78.43
48424;BME280;34232;42.502;26.014;2023-04-01T19:06:45;98745.47;;;15.64;77.92
48424;BME280;34232;42.502;26.014;2023-04-01T19:09:17;98752.59;;;15.64;77.04
48424;BME280;34232;42.502;26.014;2023-04-01T19:17:09;98753.09;;;15.53;75.64
48424;BME280;34232;42.502;26.014;2023-04-01T19:19:44;98756.13;;;15.50;75.88
48424;BME280;34232;42.502;26.014;2023-04-01T19:22:13;98789.69;;;15.43;75.90
48424;BME280;34232;42.502;26.014;2023-04-01T19:40:17;98838.38;;;14.69;74.20
48424;BME280;34232;42.502;26.014;2023-04-01T19:42:48;98839.38;;;14.68;71.08
48424;BME280;34232;42.502;26.014;2023-04-01T19:45:33;98838.91;;;14.65;68.06
48424;BME280;34232;42.502;26.014;2023-04-01T19:52:55;98813.06;;;14.52;66.29
48424;BME280;34232;42.502;26.014;2023-04-01T19:55:36;98809.06;;;14.56;66.40
48424;BME280;34232;42.502;26.014;2023-04-01T20:03:03;98758.78;;;14.78;66.84
48424;BME280;34232;42.502;26.014;2023-04-01T20:10:42;98773.94;;;14.84;66.86
48424;BME280;34232;42.502;26.014;2023-04-01T20:13:23;98770.28;;;14.85;64.76
48424;BME280;34232;42.502;26.014;2023-04-01T20:15:57;98766.28;;;14.89;64.70
48424;BME280;34232;42.502;26.014;2023-04-01T20:21:06;98766.28;;;14.89;64.63
48424;BME280;34232;42.502;26.014;2023-04-01T20:23:43;98782.63;;;14.92;65.40
48424;BME280;34232;42.502;26.014;2023-04-01T20:26:11;98800.44;;;14.84;65.00
48424;BME280;34232;42.502;26.014;2023-04-01T20:28:48;98817.81;;;14.86;64.67
48424;BME280;34232;42.502;26.014;2023-04-01T20:31:33;98825.22;;;14.91;65.20
48424;BME280;34232;42.502;26.014;2023-04-01T20:44:41;98842.28;;;14.88;62.24
48424;BME280;34232;42.502;26.014;2023-04-01T20:49:57;98857.56;;;14.72;61.41
48424;BME280;34232;42.502;26.014;2023-04-01T20:52:26;98860.38;;;14.55;62.31
48424;BME280;34232;42.502;26.014;2023-04-01T20:55:14;98868.03;;;14.50;62.62
48424;BME280;34232;42.502;26.014;2023-04-01T20:57:55;98864.47;;;14.43;61.73
48424;BME280;34232;42.502;26.014;2023-04-01T21:00:26;98873.75;;;14.39;61.42
48424;BME280;34232;42.502;26.014;2023-04-01T21:14:07;98885.78;;;14.27;61.72
48424;BME280;34232;42.502;26.014;2023-04-01T21:21:53;98888.06;;;14.07;62.58
48424;BME280;34232;42.502;26.014;2023-04-01T21:32:18;98887.59;;;14.04;62.62
48424;BME280;34232;42.502;26.014;2023-04-01T21:40:09;98890.25;;;14.04;62.83
48424;BME280;34232;42.502;26.014;2023-04-01T21:42:56;98891.16;;;13.96;63.27
48424;BME280;34232;42.502;26.014;2023-04-01T22:06:27;98916.97;;;13.63;64.63
48424;BME280;34232;42.502;26.014;2023-04-01T22:11:36;98922.63;;;13.52;64.63
48424;BME280;34232;42.502;26.014;2023-04-01T22:21:56;98920.25;;;13.65;63.85
48424;BME280;34232;42.502;26.014;2023-04-01T22:37:46;98933.53;;;13.57;63.77
48424;BME280;34232;42.502;26.014;2023-04-01T22:40:21;98936.94;;;13.65;63.79
48424;BME280;34232;42.502;26.014;2023-04-01T22:43:04;98934.84;;;13.61;63.71
48424;BME280;34232;42.502;26.014;2023-04-01T22:55:46;98932.19;;;13.61;63.19
48424;BME280;34232;42.502;26.014;2023-04-01T22:58:18;98929.72;;;13.59;63.04
48424;BME280;34232;42.502;26.014;2023-04-01T23:00:45;98931.88;;;13.56;63.55
48424;BME280;34232;42.502;26.014;2023-04-01T23:05:46;98933.22;;;13.52;62.88
48424;BME280;34232;42.502;26.014;2023-04-01T23:08:30;98938.72;;;13.42;62.91
48424;BME280;34232;42.502;26.014;2023-04-01T23:11:05;98945.00;;;13.41;62.80
48424;BME280;34232;42.502;26.014;2023-04-01T23:13:35;98949.81;;;13.38;62.65
48424;BME280;34232;42.502;26.014;2023-04-01T23:16:03;98951.78;;;13.36;62.52
48424;BME280;34232;42.502;26.014;2023-04-01T23:28:41;98973.00;;;12.06;72.12
48424;BME280;34232;42.502;26.014;2023-04-01T23:33:55;98973.97;;;11.80;72.40
48424;BME280;34232;42.502;26.014;2023-04-01T23:36:21;98978.91;;;11.83;72.33
48424;BME280;34232;42.502;26.014;2023-04-01T23:38:47;98979.63;;;11.26;74.31
48424;BME280;34232;42.502;26.014;2023-04-01T23:41:17;98989.94;;;11.11;76.21
48424;BME280;34232;42.502;26.014;2023-04-01T23:43:45;98987.16;;;11.20;76.29
48424;BME280;34232;42.502;26.014;2023-04-01T23:46:14;98994.50;;;11.35;76.13
48424;BME280;34232;42.502;26.014;2023-04-01T23:48:40;99003.06;;;11.37;75.82
48424;BME280;34232;42.502;26.014;2023-04-01T23:51:12;98998.31;;;11.40;74.73
48424;BME280;34232;42.502;26.014;2023-04-01T23:53:41;99006.06;;;11.42;74.59
48424;BME280;34232;42.502;26.014;2023-04-01T23:56:08;99010.34;;;11.43;74.19
